sensor_id;sensor_type;location;lat;lon;timestamp;pressure;altitude;pressure_sealevel;temperature
58307;BMP280;44116;50.884;4.768;2023-10-31T00:00:05;99380.0;;;9.6
58307;BMP280;44116;50.884;4.768;2023-10-31T00:02:05;99380.0;;;9.8
58307;BMP280;44116;50.884;4.768;2023-10-31T00:04:04;99390.0;;;9.8
58307;BMP280;44116;50.884;4.768;2023-10-31T00:06:04;99390.0;;;9.9
58307;BMP280;44116;50.884;4.768;2023-10-31T00:08:04;99380.0;;;9.6
58307;BMP280;44116;50.884;4.768;2023-10-31T00:10:04;99380.0;;;9.6
58307;BMP280;44116;50.884;4.768;2023-10-31T00:12:04;99380.0;;;9.5
58307;BMP280;44116;50.884;4.768;2023-10-31T00:14:03;99380.0;;;9.5
58307;BMP280;44116;50.884;4.768;2023-10-31T00:16:03;99380.0;;;9.6
58307;BMP280;44116;50.884;4.768;2023-10-31T00:18:02;99380.0;;;9.6
58307;BMP280;44116;50.884;4.768;2023-10-31T00:20:02;99390.0;;;9.8
58307;BMP280;44116;50.884;4.768;2023-10-31T00:22:02;99390.0;;;9.8
58307;BMP280;44116;50.884;4.768;2023-10-31T00:24:02;99390.0;;;9.8
58307;BMP280;44116;50.884;4.768;2023-10-31T00:26:01;99390.0;;;9.8
58307;BMP280;44116;50.884;4.768;2023-10-31T00:28:01;99390.0;;;9.5
58307;BMP280;44116;50.884;4.768;2023-10-31T00:30:01;99390.0;;;9.4
58307;BMP280;44116;50.884;4.768;2023-10-31T00:32:00;99390.0;;;9.5
58307;BMP280;44116;50.884;4.768;2023-10-31T00:34:00;99390.0;;;9.5
58307;BMP280;44116;50.884;4.768;2023-10-31T00:36:00;99400.0;;;9.6
58307;BMP280;44116;50.884;4.768;2023-10-31T00:38:00;99400.0;;;9.8
58307;BMP280;44116;50.884;4.768;2023-10-31T00:39:59;99400.0;;;9.5
58307;BMP280;44116;50.884;4.768;2023-10-31T00:41:59;99400.0;;;9.5
58307;BMP280;44116;50.884;4.768;2023-10-31T00:43:59;99400.0;;;9.6
58307;BMP280;44116;50.884;4.768;2023-10-31T00:45:58;99410.0;;;9.6
58307;BMP280;44116;50.884;4.768;2023-10-31T00:47:58;99400.0;;;9.7
58307;BMP280;44116;50.884;4.768;2023-10-31T00:49:58;99400.0;;;9.7
58307;BMP280;44116;50.884;4.768;2023-10-31T00:51:58;99400.0;;;9.7
58307;BMP280;44116;50.884;4.768;2023-10-31T00:53:57;99400.0;;;9.5
58307;BMP280;44116;50.884;4.768;2023-10-31T00:57:57;99410.0;;;9.7
58307;BMP280;44116;50.884;4.768;2023-10-31T00:59:56;99410.0;;;9.6
58307;BMP280;44116;50.884;4.768;2023-10-31T01:01:56;99410.0;;;9.7
58307;BMP280;44116;50.884;4.768;2023-10-31T01:03:56;99410.0;;;9.8
58307;BMP280;44116;50.884;4.768;2023-10-31T01:05:56;99410.0;;;9.8
58307;BMP280;44116;50.884;4.768;2023-10-31T01:07:55;99410.0;;;9.8
58307;BMP280;44116;50.884;4.768;2023-10-31T01:09:55;99410.0;;;9.7
58307;BMP280;44116;50.884;4.768;2023-10-31T01:11:55;99410.0;;;9.8
58307;BMP280;44116;50.884;4.768;2023-10-31T01:13:54;99420.0;;;9.7
58307;BMP280;44116;50.884;4.768;2023-10-31T01:15:54;99420.0;;;9.8
58307;BMP280;44116;50.884;4.768;2023-10-31T01:17:54;99420.0;;;9.8
58307;BMP280;44116;50.884;4.768;2023-10-31T01:19:54;99430.0;;;9.8
58307;BMP280;44116;50.884;4.768;2023-10-31T01:21:53;99420.0;;;9.8
58307;BMP280;44116;50.884;4.768;2023-10-31T01:23:53;99430.0;;;9.9
58307;BMP280;44116;50.884;4.768;2023-10-31T01:25:53;99430.0;;;9.8
58307;BMP280;44116;50.884;4.768;2023-10-31T01:27:53;99430.0;;;9.8
58307;BMP280;44116;50.884;4.768;2023-10-31T01:31:52;99430.0;;;9.8
58307;BMP280;44116;50.884;4.768;2023-10-31T01:35:51;99430.0;;;9.9
58307;BMP280;44116;50.884;4.768;2023-10-31T01:39:51;99430.0;;;9.9
58307;BMP280;44116;50.884;4.768;2023-10-31T01:41:51;99430.0;;;9.9
58307;BMP280;44116;50.884;4.768;2023-10-31T01:43:50;99430.0;;;9.8
58307;BMP280;44116;50.884;4.768;2023-10-31T01:45:50;99430.0;;;9.9
58307;BMP280;44116;50.884;4.768;2023-10-31T01:47:50;99440.0;;;10.0
58307;BMP280;44116;50.884;4.768;2023-10-31T01:49:50;99440.0;;;9.9
58307;BMP280;44116;50.884;4.768;2023-10-31T01:51:50;99440.0;;;9.8
58307;BMP280;44116;50.884;4.768;2023-10-31T01:53:49;99430.0;;;9.8
58307;BMP280;44116;50.884;4.768;2023-10-31T01:55:49;99440.0;;;9.9
58307;BMP280;44116;50.884;4.768;2023-10-31T01:57:48;99440.0;;;9.8
58307;BMP280;44116;50.884;4.768;2023-10-31T01:59:48;99440.0;;;9.8
58307;BMP280;44116;50.884;4.768;2023-10-31T02:01:48;99440.0;;;9.7
58307;BMP280;44116;50.884;4.768;2023-10-31T02:03:48;99440.0;;;9.8
58307;BMP280;44116;50.884;4.768;2023-10-31T02:05:47;99450.0;;;9.7
58307;BMP280;44116;50.884;4.768;2023-10-31T02:07:47;99440.0;;;9.8
58307;BMP280;44116;50.884;4.768;2023-10-31T02:09:47;99450.0;;;9.7
58307;BMP280;44116;50.884;4.768;2023-10-31T02:11:46;99450.0;;;9.6
58307;BMP280;44116;50.884;4.768;2023-10-31T02:15:46;99450.0;;;9.5
58307;BMP280;44116;50.884;4.768;2023-10-31T02:17:45;99450.0;;;9.5
58307;BMP280;44116;50.884;4.768;2023-10-31T02:19:45;99450.0;;;9.4
58307;BMP280;44116;50.884;4.768;2023-10-31T02:23:54;99450.0;;;9.5
58307;BMP280;44116;50.884;4.768;2023-10-31T02:25:55;99450.0;;;9.4
58307;BMP280;44116;50.884;4.768;2023-10-31T02:27:44;99440.0;;;9.4
58307;BMP280;44116;50.884;4.768;2023-10-31T02:29:44;99440.0;;;9.5
58307;BMP280;44116;50.884;4.768;2023-10-31T02:31:44;99450.0;;;9.5
58307;BMP280;44116;50.884;4.768;2023-10-31T02:33:43;99450.0;;;9.6
58307;BMP280;44116;50.884;4.768;2023-10-31T02:35:43;99450.0;;;9.6
58307;BMP280;44116;50.884;4.768;2023-10-31T02:37:43;99450.0;;;9.6
58307;BMP280;44116;50.884;4.768;2023-10-31T02:39:42;99450.0;;;9.6
58307;BMP280;44116;50.884;4.768;2023-10-31T02:41:42;99450.0;;;9.6
58307;BMP280;44116;50.884;4.768;2023-10-31T02:43:42;99450.0;;;9.6
58307;BMP280;44116;50.884;4.768;2023-10-31T02:47:41;99460.0;;;9.2
58307;BMP280;44116;50.884;4.768;2023-10-31T02:49:41;99460.0;;;9.3
58307;BMP280;44116;50.884;4.768;2023-10-31T02:51:40;99460.0;;;9.2
58307;BMP280;44116;50.884;4.768;2023-10-31T02:53:40;99470.0;;;9.3
58307;BMP280;44116;50.884;4.768;2023-10-31T02:55:40;99470.0;;;9.3
58307;BMP280;44116;50.884;4.768;2023-10-31T02:57:39;99470.0;;;9.2
58307;BMP280;44116;50.884;4.768;2023-10-31T02:59:39;99470.0;;;9.3
58307;BMP280;44116;50.884;4.768;2023-10-31T03:03:38;99480.0;;;9.3
58307;BMP280;44116;50.884;4.768;2023-10-31T03:05:38;99480.0;;;9.3
58307;BMP280;44116;50.884;4.768;2023-10-31T03:07:38;99490.0;;;9.3
58307;BMP280;44116;50.884;4.768;2023-10-31T03:09:37;99490.0;;;9.2
58307;BMP280;44116;50.884;4.768;2023-10-31T03:11:37;99490.0;;;9.3
58307;BMP280;44116;50.884;4.768;2023-10-31T03:13:37;99500.0;;;9.2
58307;BMP280;44116;50.884;4.768;2023-10-31T03:17:36;99500.0;;;9.2
58307;BMP280;44116;50.884;4.768;2023-10-31T03:19:36;99500.0;;;9.2
58307;BMP280;44116;50.884;4.768;2023-10-31T03:21:35;99500.0;;;9.0
58307;BMP280;44116;50.884;4.768;2023-10-31T03:23:35;99510.0;;;9.3
58307;BMP280;44116;50.884;4.768;2023-10-31T03:25:35;99520.0;;;9.3
58307;BMP280;44116;50.884;4.768;2023-10-31T03:27:35;99520.0;;;9.3
58307;BMP280;44116;50.884;4.768;2023-10-31T03:29:34;99520.0;;;9.3
58307;BMP280;44116;50.884;4.768;2023-10-31T03:31:34;99530.0;;;9.2
58307;BMP280;44116;50.884;4.768;2023-10-31T03:33:34;99530.0;;;9.1
58307;BMP280;44116;50.884;4.768;2023-10-31T03:35:33;99530.0;;;9.1
58307;BMP280;44116;50.884;4.768;2023-10-31T03:39:33;99530.0;;;9.2
58307;BMP280;44116;50.884;4.768;2023-10-31T03:41:32;99530.0;;;9.2
58307;BMP280;44116;50.884;4.768;2023-10-31T03:43:32;99530.0;;;9.2
58307;BMP280;44116;50.884;4.768;2023-10-31T03:45:32;99540.0;;;9.1
58307;BMP280;44116;50.884;4.768;2023-10-31T03:51:31;99540.0;;;9.0
58307;BMP280;44116;50.884;4.768;2023-10-31T03:53:30;99550.0;;;9.0
58307;BMP280;44116;50.884;4.768;2023-10-31T03:59:29;99550.0;;;8.9
58307;BMP280;44116;50.884;4.768;2023-10-31T04:01:29;99550.0;;;8.9
58307;BMP280;44116;50.884;4.768;2023-10-31T04:03:29;99560.0;;;8.8
58307;BMP280;44116;50.884;4.768;2023-10-31T04:05:28;99560.0;;;8.8
58307;BMP280;44116;50.884;4.768;2023-10-31T04:07:28;99560.0;;;8.9
58307;BMP280;44116;50.884;4.768;2023-10-31T04:09:28;99560.0;;;8.8
58307;BMP280;44116;50.884;4.768;2023-10-31T04:11:27;99570.0;;;8.6
58307;BMP280;44116;50.884;4.768;2023-10-31T04:13:27;99570.0;;;8.6
58307;BMP280;44116;50.884;4.768;2023-10-31T04:15:27;99570.0;;;8.6
58307;BMP280;44116;50.884;4.768;2023-10-31T04:17:27;99570.0;;;8.5
58307;BMP280;44116;50.884;4.768;2023-10-31T04:19:26;99570.0;;;8.5
58307;BMP280;44116;50.884;4.768;2023-10-31T04:21:26;99570.0;;;8.5
58307;BMP280;44116;50.884;4.768;2023-10-31T04:23:25;99570.0;;;8.5
58307;BMP280;44116;50.884;4.768;2023-10-31T04:25:25;99580.0;;;8.5
58307;BMP280;44116;50.884;4.768;2023-10-31T04:29:24;99580.0;;;8.4
58307;BMP280;44116;50.884;4.768;2023-10-31T04:31:24;99580.0;;;8.3
58307;BMP280;44116;50.884;4.768;2023-10-31T04:33:24;99590.0;;;8.3
58307;BMP280;44116;50.884;4.768;2023-10-31T04:35:23;99580.0;;;8.2
58307;BMP280;44116;50.884;4.768;2023-10-31T04:37:23;99580.0;;;8.2
58307;BMP280;44116;50.884;4.768;2023-10-31T04:41:22;99580.0;;;8.2
58307;BMP280;44116;50.884;4.768;2023-10-31T04:43:22;99590.0;;;8.2
58307;BMP280;44116;50.884;4.768;2023-10-31T04:45:22;99590.0;;;8.1
58307;BMP280;44116;50.884;4.768;2023-10-31T04:47:21;99590.0;;;8.1
58307;BMP280;44116;50.884;4.768;2023-10-31T04:49:21;99590.0;;;8.1
58307;BMP280;44116;50.884;4.768;2023-10-31T04:51:21;99600.0;;;8.0
58307;BMP280;44116;50.884;4.768;2023-10-31T04:53:20;99600.0;;;8.0
58307;BMP280;44116;50.884;4.768;2023-10-31T04:55:20;99610.0;;;7.9
58307;BMP280;44116;50.884;4.768;2023-10-31T04:57:20;99610.0;;;8.0
58307;BMP280;44116;50.884;4.768;2023-10-31T04:59:19;99610.0;;;8.0
58307;BMP280;44116;50.884;4.768;2023-10-31T05:01:19;99610.0;;;8.0
58307;BMP280;44116;50.884;4.768;2023-10-31T05:03:19;99610.0;;;8.0
58307;BMP280;44116;50.884;4.768;2023-10-31T05:05:18;99610.0;;;7.9
58307;BMP280;44116;50.884;4.768;2023-10-31T05:09:17;99620.0;;;8.0
58307;BMP280;44116;50.884;4.768;2023-10-31T05:15:17;99630.0;;;7.9
58307;BMP280;44116;50.884;4.768;2023-10-31T05:19:16;99630.0;;;7.9
58307;BMP280;44116;50.884;4.768;2023-10-31T05:21:18;99630.0;;;7.8
58307;BMP280;44116;50.884;4.768;2023-10-31T05:23:15;99640.0;;;7.8
58307;BMP280;44116;50.884;4.768;2023-10-31T05:25:15;99640.0;;;7.8
58307;BMP280;44116;50.884;4.768;2023-10-31T05:27:14;99640.0;;;8.0
58307;BMP280;44116;50.884;4.768;2023-10-31T05:29:14;99650.0;;;8.0
58307;BMP280;44116;50.884;4.768;2023-10-31T05:31:14;99650.0;;;8.1
58307;BMP280;44116;50.884;4.768;2023-10-31T05:33:14;99650.0;;;8.2
58307;BMP280;44116;50.884;4.768;2023-10-31T05:35:13;99650.0;;;8.2
58307;BMP280;44116;50.884;4.768;2023-10-31T05:41:12;99660.0;;;8.1
58307;BMP280;44116;50.884;4.768;2023-10-31T05:43:12;99660.0;;;8.2
58307;BMP280;44116;50.884;4.768;2023-10-31T05:45:11;99670.0;;;8.2
58307;BMP280;44116;50.884;4.768;2023-10-31T05:47:11;99670.0;;;8.3
58307;BMP280;44116;50.884;4.768;2023-10-31T05:49:11;99680.0;;;8.3
58307;BMP280;44116;50.884;4.768;2023-10-31T05:51:11;99680.0;;;8.3
58307;BMP280;44116;50.884;4.768;2023-10-31T05:53:10;99680.0;;;8.4
58307;BMP280;44116;50.884;4.768;2023-10-31T05:55:10;99690.0;;;8.4
58307;BMP280;44116;50.884;4.768;2023-10-31T05:57:09;99690.0;;;8.4
58307;BMP280;44116;50.884;4.768;2023-10-31T05:59:09;99690.0;;;8.4
58307;BMP280;44116;50.884;4.768;2023-10-31T06:01:09;99690.0;;;8.4
58307;BMP280;44116;50.884;4.768;2023-10-31T06:03:08;99680.0;;;8.4
58307;BMP280;44116;50.884;4.768;2023-10-31T06:05:08;99680.0;;;8.4
58307;BMP280;44116;50.884;4.768;2023-10-31T06:07:08;99680.0;;;8.4
58307;BMP280;44116;50.884;4.768;2023-10-31T06:09:07;99680.0;;;8.4
58307;BMP280;44116;50.884;4.768;2023-10-31T06:11:07;99680.0;;;8.4
58307;BMP280;44116;50.884;4.768;2023-10-31T06:15:07;99690.0;;;8.5
58307;BMP280;44116;50.884;4.768;2023-10-31T06:17:06;99690.0;;;8.5
58307;BMP280;44116;50.884;4.768;2023-10-31T06:21:05;99690.0;;;8.5
58307;BMP280;44116;50.884;4.768;2023-10-31T06:23:05;99690.0;;;8.4
58307;BMP280;44116;50.884;4.768;2023-10-31T06:27:05;99700.0;;;8.5
58307;BMP280;44116;50.884;4.768;2023-10-31T06:29:04;99700.0;;;8.6
58307;BMP280;44116;50.884;4.768;2023-10-31T06:33:03;99700.0;;;8.6
58307;BMP280;44116;50.884;4.768;2023-10-31T06:35:03;99700.0;;;8.5
58307;BMP280;44116;50.884;4.768;2023-10-31T06:37:03;99700.0;;;8.5
58307;BMP280;44116;50.884;4.768;2023-10-31T06:39:02;99710.0;;;8.5
58307;BMP280;44116;50.884;4.768;2023-10-31T06:41:02;99710.0;;;8.4
58307;BMP280;44116;50.884;4.768;2023-10-31T06:43:02;99710.0;;;8.4
58307;BMP280;44116;50.884;4.768;2023-10-31T06:45:02;99710.0;;;8.4
58307;BMP280;44116;50.884;4.768;2023-10-31T06:47:01;99710.0;;;8.4
58307;BMP280;44116;50.884;4.768;2023-10-31T06:49:01;99710.0;;;8.4
58307;BMP280;44116;50.884;4.768;2023-10-31T06:51:00;99710.0;;;8.3
58307;BMP280;44116;50.884;4.768;2023-10-31T06:53:00;99710.0;;;8.3
58307;BMP280;44116;50.884;4.768;2023-10-31T06:55:00;99710.0;;;8.3
58307;BMP280;44116;50.884;4.768;2023-10-31T06:56:59;99710.0;;;8.2
58307;BMP280;44116;50.884;4.768;2023-10-31T06:58:59;99710.0;;;8.3
58307;BMP280;44116;50.884;4.768;2023-10-31T07:00:59;99710.0;;;8.2
58307;BMP280;44116;50.884;4.768;2023-10-31T07:02:58;99710.0;;;8.2
58307;BMP280;44116;50.884;4.768;2023-10-31T07:04:58;99710.0;;;8.2
58307;BMP280;44116;50.884;4.768;2023-10-31T07:06:58;99720.0;;;8.3
58307;BMP280;44116;50.884;4.768;2023-10-31T07:08:57;99720.0;;;8.3
58307;BMP280;44116;50.884;4.768;2023-10-31T07:10:57;99720.0;;;8.3
58307;BMP280;44116;50.884;4.768;2023-10-31T07:12:57;99720.0;;;8.2
58307;BMP280;44116;50.884;4.768;2023-10-31T07:14:56;99720.0;;;8.3
58307;BMP280;44116;50.884;4.768;2023-10-31T07:16:56;99730.0;;;8.2
58307;BMP280;44116;50.884;4.768;2023-10-31T07:18:56;99730.0;;;8.4
58307;BMP280;44116;50.884;4.768;2023-10-31T07:20:55;99730.0;;;8.4
58307;BMP280;44116;50.884;4.768;2023-10-31T07:22:55;99730.0;;;8.4
58307;BMP280;44116;50.884;4.768;2023-10-31T07:24:55;99740.0;;;8.4
58307;BMP280;44116;50.884;4.768;2023-10-31T07:26:54;99740.0;;;8.4
58307;BMP280;44116;50.884;4.768;2023-10-31T07:28:54;99740.0;;;8.5
58307;BMP280;44116;50.884;4.768;2023-10-31T07:30:54;99740.0;;;8.4
58307;BMP280;44116;50.884;4.768;2023-10-31T07:32:53;99740.0;;;8.4
58307;BMP280;44116;50.884;4.768;2023-10-31T07:34:53;99740.0;;;8.4
58307;BMP280;44116;50.884;4.768;2023-10-31T07:36:53;99740.0;;;8.5
58307;BMP280;44116;50.884;4.768;2023-10-31T07:38:52;99740.0;;;8.5
58307;BMP280;44116;50.884;4.768;2023-10-31T07:40:52;99750.0;;;8.5
58307;BMP280;44116;50.884;4.768;2023-10-31T07:42:52;99750.0;;;8.5
58307;BMP280;44116;50.884;4.768;2023-10-31T07:44:51;99750.0;;;8.6
58307;BMP280;44116;50.884;4.768;2023-10-31T07:46:51;99750.0;;;8.6
58307;BMP280;44116;50.884;4.768;2023-10-31T07:48:51;99750.0;;;8.8
58307;BMP280;44116;50.884;4.768;2023-10-31T07:50:50;99760.0;;;8.8
58307;BMP280;44116;50.884;4.768;2023-10-31T07:52:50;99750.0;;;8.9
58307;BMP280;44116;50.884;4.768;2023-10-31T07:54:50;99750.0;;;9.0
58307;BMP280;44116;50.884;4.768;2023-10-31T07:56:49;99750.0;;;8.9
58307;BMP280;44116;50.884;4.768;2023-10-31T07:58:49;99750.0;;;9.0
58307;BMP280;44116;50.884;4.768;2023-10-31T08:00:49;99760.0;;;9.1
58307;BMP280;44116;50.884;4.768;2023-10-31T08:02:48;99760.0;;;9.2
58307;BMP280;44116;50.884;4.768;2023-10-31T08:04:48;99760.0;;;9.2
58307;BMP280;44116;50.884;4.768;2023-10-31T08:10:47;99760.0;;;9.4
58307;BMP280;44116;50.884;4.768;2023-10-31T08:12:47;99760.0;;;9.4
58307;BMP280;44116;50.884;4.768;2023-10-31T08:14:46;99760.0;;;9.4
58307;BMP280;44116;50.884;4.768;2023-10-31T08:16:46;99760.0;;;9.5
58307;BMP280;44116;50.884;4.768;2023-10-31T08:18:46;99760.0;;;9.7
58307;BMP280;44116;50.884;4.768;2023-10-31T08:20:46;99760.0;;;9.6
58307;BMP280;44116;50.884;4.768;2023-10-31T08:22:45;99760.0;;;9.7
58307;BMP280;44116;50.884;4.768;2023-10-31T08:24:45;99770.0;;;9.8
58307;BMP280;44116;50.884;4.768;2023-10-31T08:26:45;99770.0;;;9.8
58307;BMP280;44116;50.884;4.768;2023-10-31T08:28:44;99770.0;;;10.0
58307;BMP280;44116;50.884;4.768;2023-10-31T08:30:44;99770.0;;;10.0
58307;BMP280;44116;50.884;4.768;2023-10-31T08:32:44;99770.0;;;9.8
58307;BMP280;44116;50.884;4.768;2023-10-31T08:34:43;99770.0;;;9.8
58307;BMP280;44116;50.884;4.768;2023-10-31T08:38:43;99780.0;;;10.0
58307;BMP280;44116;50.884;4.768;2023-10-31T08:40:42;99770.0;;;10.0
58307;BMP280;44116;50.884;4.768;2023-10-31T08:42:43;99780.0;;;10.1
58307;BMP280;44116;50.884;4.768;2023-10-31T08:44:42;99780.0;;;10.2
58307;BMP280;44116;50.884;4.768;2023-10-31T08:48:41;99780.0;;;10.3
58307;BMP280;44116;50.884;4.768;2023-10-31T08:50:41;99790.0;;;10.5
58307;BMP280;44116;50.884;4.768;2023-10-31T08:52:41;99800.0;;;10.5
58307;BMP280;44116;50.884;4.768;2023-10-31T08:54:40;99800.0;;;10.2
58307;BMP280;44116;50.884;4.768;2023-10-31T08:56:40;99800.0;;;10.2
58307;BMP280;44116;50.884;4.768;2023-10-31T08:58:40;99810.0;;;10.2
58307;BMP280;44116;50.884;4.768;2023-10-31T09:00:40;99800.0;;;10.3
58307;BMP280;44116;50.884;4.768;2023-10-31T09:02:39;99810.0;;;10.1
58307;BMP280;44116;50.884;4.768;2023-10-31T09:04:39;99810.0;;;10.1
58307;BMP280;44116;50.884;4.768;2023-10-31T09:08:38;99820.0;;;10.3
58307;BMP280;44116;50.884;4.768;2023-10-31T09:10:38;99820.0;;;10.3
58307;BMP280;44116;50.884;4.768;2023-10-31T09:12:38;99820.0;;;10.5
58307;BMP280;44116;50.884;4.768;2023-10-31T09:14:38;99830.0;;;10.6
58307;BMP280;44116;50.884;4.768;2023-10-31T09:16:37;99830.0;;;10.6
58307;BMP280;44116;50.884;4.768;2023-10-31T09:18:37;99830.0;;;10.7
58307;BMP280;44116;50.884;4.768;2023-10-31T09:20:37;99830.0;;;10.9
58307;BMP280;44116;50.884;4.768;2023-10-31T09:24:36;99830.0;;;10.7
58307;BMP280;44116;50.884;4.768;2023-10-31T09:26:36;99840.0;;;10.8
58307;BMP280;44116;50.884;4.768;2023-10-31T09:28:36;99840.0;;;10.8
58307;BMP280;44116;50.884;4.768;2023-10-31T09:30:35;99840.0;;;10.9
58307;BMP280;44116;50.884;4.768;2023-10-31T09:34:34;99850.0;;;11.3
58307;BMP280;44116;50.884;4.768;2023-10-31T09:36:34;99860.0;;;11.3
58307;BMP280;44116;50.884;4.768;2023-10-31T09:38:34;99860.0;;;11.2
58307;BMP280;44116;50.884;4.768;2023-10-31T09:40:35;99860.0;;;11.3
58307;BMP280;44116;50.884;4.768;2023-10-31T09:42:33;99860.0;;;11.1
58307;BMP280;44116;50.884;4.768;2023-10-31T09:44:33;99870.0;;;11.1
58307;BMP280;44116;50.884;4.768;2023-10-31T09:46:33;99880.0;;;11.2
58307;BMP280;44116;50.884;4.768;2023-10-31T09:48:33;99880.0;;;11.0
58307;BMP280;44116;50.884;4.768;2023-10-31T09:50:32;99880.0;;;11.1
58307;BMP280;44116;50.884;4.768;2023-10-31T09:52:32;99890.0;;;11.1
58307;BMP280;44116;50.884;4.768;2023-10-31T09:54:32;99890.0;;;11.2
58307;BMP280;44116;50.884;4.768;2023-10-31T09:56:31;99900.0;;;11.2
58307;BMP280;44116;50.884;4.768;2023-10-31T10:00:31;99910.0;;;11.3
58307;BMP280;44116;50.884;4.768;2023-10-31T10:02:31;99900.0;;;11.1
58307;BMP280;44116;50.884;4.768;2023-10-31T10:04:30;99910.0;;;11.2
58307;BMP280;44116;50.884;4.768;2023-10-31T10:06:30;99910.0;;;11.3
58307;BMP280;44116;50.884;4.768;2023-10-31T10:14:29;99930.0;;;11.5
58307;BMP280;44116;50.884;4.768;2023-10-31T10:16:29;99930.0;;;11.6
58307;BMP280;44116;50.884;4.768;2023-10-31T10:20:28;99940.0;;;11.3
58307;BMP280;44116;50.884;4.768;2023-10-31T10:22:28;99940.0;;;11.5
58307;BMP280;44116;50.884;4.768;2023-10-31T10:24:28;99940.0;;;11.7
58307;BMP280;44116;50.884;4.768;2023-10-31T10:26:28;99940.0;;;12.1
58307;BMP280;44116;50.884;4.768;2023-10-31T10:28:27;99930.0;;;11.8
58307;BMP280;44116;50.884;4.768;2023-10-31T10:30:27;99940.0;;;11.4
58307;BMP280;44116;50.884;4.768;2023-10-31T10:32:27;99940.0;;;11.4
58307;BMP280;44116;50.884;4.768;2023-10-31T10:34:26;99950.0;;;11.4
58307;BMP280;44116;50.884;4.768;2023-10-31T10:36:26;99950.0;;;11.3
58307;BMP280;44116;50.884;4.768;2023-10-31T10:38:26;99950.0;;;11.1
58307;BMP280;44116;50.884;4.768;2023-10-31T10:42:28;99960.0;;;11.3
58307;BMP280;44116;50.884;4.768;2023-10-31T10:44:29;99960.0;;;11.5
58307;BMP280;44116;50.884;4.768;2023-10-31T10:46:25;99960.0;;;11.7
58307;BMP280;44116;50.884;4.768;2023-10-31T10:48:25;99950.0;;;11.8
58307;BMP280;44116;50.884;4.768;2023-10-31T10:50:24;99950.0;;;11.7
58307;BMP280;44116;50.884;4.768;2023-10-31T10:52:28;99960.0;;;11.6
58307;BMP280;44116;50.884;4.768;2023-10-31T10:54:25;99960.0;;;11.5
58307;BMP280;44116;50.884;4.768;2023-10-31T10:56:25;99950.0;;;11.5
58307;BMP280;44116;50.884;4.768;2023-10-31T10:58:26;99960.0;;;11.4
58307;BMP280;44116;50.884;4.768;2023-10-31T11:00:23;99960.0;;;11.6
58307;BMP280;44116;50.884;4.768;2023-10-31T11:02:23;99960.0;;;12.1
58307;BMP280;44116;50.884;4.768;2023-10-31T11:04:22;99960.0;;;11.9
58307;BMP280;44116;50.884;4.768;2023-10-31T11:06:23;99950.0;;;11.8
58307;BMP280;44116;50.884;4.768;2023-10-31T11:08:23;99950.0;;;11.5
58307;BMP280;44116;50.884;4.768;2023-10-31T11:10:22;99960.0;;;11.6
58307;BMP280;44116;50.884;4.768;2023-10-31T11:12:22;99960.0;;;11.6
58307;BMP280;44116;50.884;4.768;2023-10-31T11:14:21;99960.0;;;11.6
58307;BMP280;44116;50.884;4.768;2023-10-31T11:16:23;99960.0;;;11.7
58307;BMP280;44116;50.884;4.768;2023-10-31T11:18:21;99960.0;;;11.8
58307;BMP280;44116;50.884;4.768;2023-10-31T11:20:21;99960.0;;;11.7
58307;BMP280;44116;50.884;4.768;2023-10-31T11:22:21;99960.0;;;11.7
58307;BMP280;44116;50.884;4.768;2023-10-31T11:24:20;99970.0;;;11.8
58307;BMP280;44116;50.884;4.768;2023-10-31T11:26:20;99970.0;;;11.6
58307;BMP280;44116;50.884;4.768;2023-10-31T11:28:20;99970.0;;;11.9
58307;BMP280;44116;50.884;4.768;2023-10-31T11:30:20;99960.0;;;11.9
58307;BMP280;44116;50.884;4.768;2023-10-31T11:32:19;99960.0;;;12.2
58307;BMP280;44116;50.884;4.768;2023-10-31T11:34:19;99960.0;;;12.2
58307;BMP280;44116;50.884;4.768;2023-10-31T11:36:19;99960.0;;;11.9
58307;BMP280;44116;50.884;4.768;2023-10-31T11:38:27;99960.0;;;12.1
58307;BMP280;44116;50.884;4.768;2023-10-31T11:40:20;99960.0;;;12.0
58307;BMP280;44116;50.884;4.768;2023-10-31T11:44:18;99970.0;;;11.8
58307;BMP280;44116;50.884;4.768;2023-10-31T11:46:18;99970.0;;;11.6
58307;BMP280;44116;50.884;4.768;2023-10-31T11:48:17;99970.0;;;11.5
58307;BMP280;44116;50.884;4.768;2023-10-31T11:50:17;99970.0;;;11.5
58307;BMP280;44116;50.884;4.768;2023-10-31T11:52:17;99980.0;;;11.7
58307;BMP280;44116;50.884;4.768;2023-10-31T11:54:17;99980.0;;;11.7
58307;BMP280;44116;50.884;4.768;2023-10-31T11:56:17;99980.0;;;11.3
58307;BMP280;44116;50.884;4.768;2023-10-31T11:58:17;99980.0;;;11.4
58307;BMP280;44116;50.884;4.768;2023-10-31T12:00:20;99980.0;;;11.6
58307;BMP280;44116;50.884;4.768;2023-10-31T12:02:16;99980.0;;;11.4
58307;BMP280;44116;50.884;4.768;2023-10-31T12:04:23;99990.0;;;11.5
58307;BMP280;44116;50.884;4.768;2023-10-31T12:06:15;99990.0;;;11.3
58307;BMP280;44116;50.884;4.768;2023-10-31T12:08:15;99990.0;;;11.1
58307;BMP280;44116;50.884;4.768;2023-10-31T12:10:21;99990.0;;;11.1
58307;BMP280;44116;50.884;4.768;2023-10-31T12:12:15;99990.0;;;11.2
58307;BMP280;44116;50.884;4.768;2023-10-31T12:14:17;99990.0;;;11.4
58307;BMP280;44116;50.884;4.768;2023-10-31T12:16:14;99990.0;;;11.2
58307;BMP280;44116;50.884;4.768;2023-10-31T12:18:14;100000.0;;;11.1
58307;BMP280;44116;50.884;4.768;2023-10-31T12:20:14;100000.0;;;11.1
58307;BMP280;44116;50.884;4.768;2023-10-31T12:24:14;100010.0;;;11.3
58307;BMP280;44116;50.884;4.768;2023-10-31T12:26:13;100000.0;;;11.4
58307;BMP280;44116;50.884;4.768;2023-10-31T12:28:16;100000.0;;;11.1
58307;BMP280;44116;50.884;4.768;2023-10-31T12:30:13;100010.0;;;11.1
58307;BMP280;44116;50.884;4.768;2023-10-31T12:34:12;100010.0;;;10.9
58307;BMP280;44116;50.884;4.768;2023-10-31T12:36:12;100020.0;;;11.0
58307;BMP280;44116;50.884;4.768;2023-10-31T12:40:12;100030.0;;;11.0
58307;BMP280;44116;50.884;4.768;2023-10-31T12:44:11;100040.0;;;10.9
58307;BMP280;44116;50.884;4.768;2023-10-31T12:48:10;100040.0;;;11.0
58307;BMP280;44116;50.884;4.768;2023-10-31T12:50:12;100040.0;;;11.0
58307;BMP280;44116;50.884;4.768;2023-10-31T12:52:10;100040.0;;;11.1
58307;BMP280;44116;50.884;4.768;2023-10-31T12:56:09;100020.0;;;10.9
58307;BMP280;44116;50.884;4.768;2023-10-31T12:58:11;99980.0;;;10.9
58307;BMP280;44116;50.884;4.768;2023-10-31T13:00:09;99980.0;;;10.9
58307;BMP280;44116;50.884;4.768;2023-10-31T13:02:09;99980.0;;;10.8
58307;BMP280;44116;50.884;4.768;2023-10-31T13:04:08;99980.0;;;10.8
58307;BMP280;44116;50.884;4.768;2023-10-31T13:06:13;99980.0;;;10.7
58307;BMP280;44116;50.884;4.768;2023-10-31T13:08:10;99990.0;;;10.6
58307;BMP280;44116;50.884;4.768;2023-10-31T13:10:08;99990.0;;;10.8
58307;BMP280;44116;50.884;4.768;2023-10-31T13:12:08;99990.0;;;10.8
58307;BMP280;44116;50.884;4.768;2023-10-31T13:14:07;99980.0;;;10.7
58307;BMP280;44116;50.884;4.768;2023-10-31T13:16:07;99980.0;;;10.8
58307;BMP280;44116;50.884;4.768;2023-10-31T13:18:07;99980.0;;;10.9
58307;BMP280;44116;50.884;4.768;2023-10-31T13:20:07;99980.0;;;11.0
58307;BMP280;44116;50.884;4.768;2023-10-31T13:24:06;99990.0;;;10.9
58307;BMP280;44116;50.884;4.768;2023-10-31T13:26:06;99990.0;;;10.9
58307;BMP280;44116;50.884;4.768;2023-10-31T13:28:05;100000.0;;;10.8